sensor_id;sensor_type;location;lat;lon;timestamp;P1;durP1;ratioP1;P2;durP2;ratioP2
66169;SDS011;52971;44.024;20.456;2022-11-24T00:01:01;113.28;;;56.05;;
66169;SDS011;52971;44.024;20.456;2022-11-24T00:03:54;20.48;;;12.00;;
66169;SDS011;52971;44.024;20.456;2022-11-24T00:06:27;20.00;;;9.10;;
66169;SDS011;52971;44.024;20.456;2022-11-24T00:08:54;10.05;;;5.47;;
66169;SDS011;52971;44.024;20.456;2022-11-24T00:11:21;16.08;;;8.52;;
66169;SDS011;52971;44.024;20.456;2022-11-24T00:13:53;73.35;;;34.22;;
66169;SDS011;52971;44.024;20.456;2022-11-24T00:16:20;47.55;;;22.70;;
66169;SDS011;52971;44.024;20.456;2022-11-24T00:18:49;20.33;;;10.13;;
66169;SDS011;52971;44.024;20.456;2022-11-24T00:21:17;18.67;;;8.68;;
66169;SDS011;52971;44.024;20.456;2022-11-24T00:23:43;34.28;;;16.98;;
66169;SDS011;52971;44.024;20.456;2022-11-24T00:26:10;6.97;;;3.78;;
66169;SDS011;52971;44.024;20.456;2022-11-24T00:28:56;5.60;;;3.17;;
66169;SDS011;52971;44.024;20.456;2022-11-24T00:31:33;4.43;;;2.55;;
66169;SDS011;52971;44.024;20.456;2022-11-24T00:34:01;5.35;;;2.80;;
66169;SDS011;52971;44.024;20.456;2022-11-24T00:36:29;9.07;;;4.97;;
66169;SDS011;52971;44.024;20.456;2022-11-24T00:39:00;6.22;;;4.28;;
66169;SDS011;52971;44.024;20.456;2022-11-24T00:41:28;8.20;;;5.15;;
66169;SDS011;52971;44.024;20.456;2022-11-24T00:43:54;9.57;;;5.05;;
66169;SDS011;52971;44.024;20.456;2022-11-24T00:46:20;3.72;;;2.25;;
66169;SDS011;52971;44.024;20.456;2022-11-24T00:48:47;2.42;;;1.35;;
66169;SDS011;52971;44.024;20.456;2022-11-24T00:51:13;3.33;;;1.52;;
66169;SDS011;52971;44.024;20.456;2022-11-24T00:53:40;17.45;;;7.82;;
66169;SDS011;52971;44.024;20.456;2022-11-24T00:56:06;16.52;;;6.28;;
66169;SDS011;52971;44.024;20.456;2022-11-24T00:58:32;10.48;;;4.88;;
66169;SDS011;52971;44.024;20.456;2022-11-24T01:01:02;32.75;;;14.60;;
66169;SDS011;52971;44.024;20.456;2022-11-24T01:03:30;14.43;;;7.15;;
66169;SDS011;52971;44.024;20.456;2022-11-24T01:05:55;19.58;;;9.43;;
66169;SDS011;52971;44.024;20.456;2022-11-24T01:08:21;10.93;;;5.90;;
66169;SDS011;52971;44.024;20.456;2022-11-24T01:10:46;6.85;;;3.13;;
66169;SDS011;52971;44.024;20.456;2022-11-24T01:13:12;4.05;;;2.42;;
66169;SDS011;52971;44.024;20.456;2022-11-24T01:15:37;3.88;;;2.40;;
66169;SDS011;52971;44.024;20.456;2022-11-24T01:18:03;9.05;;;5.28;;
66169;SDS011;52971;44.024;20.456;2022-11-24T01:20:30;3.05;;;1.58;;
66169;SDS011;52971;44.024;20.456;2022-11-24T01:22:56;2.08;;;1.20;;
66169;SDS011;52971;44.024;20.456;2022-11-24T01:25:21;2.00;;;1.38;;
66169;SDS011;52971;44.024;20.456;2022-11-24T01:27:47;5.72;;;2.83;;
66169;SDS011;52971;44.024;20.456;2022-11-24T01:30:13;6.57;;;3.17;;
66169;SDS011;52971;44.024;20.456;2022-11-24T01:32:38;10.85;;;5.78;;
66169;SDS011;52971;44.024;20.456;2022-11-24T01:35:04;12.07;;;6.90;;
66169;SDS011;52971;44.024;20.456;2022-11-24T01:37:30;11.18;;;5.88;;
66169;SDS011;52971;44.024;20.456;2022-11-24T01:39:56;47.50;;;24.05;;
66169;SDS011;52971;44.024;20.456;2022-11-24T01:42:22;25.38;;;13.43;;
66169;SDS011;52971;44.024;20.456;2022-11-24T01:44:49;12.25;;;7.63;;
66169;SDS011;52971;44.024;20.456;2022-11-24T01:47:36;12.65;;;7.90;;
66169;SDS011;52971;44.024;20.456;2022-11-24T01:50:05;10.73;;;6.60;;
66169;SDS011;52971;44.024;20.456;2022-11-24T01:52:45;12.05;;;6.70;;
66169;SDS011;52971;44.024;20.456;2022-11-24T01:55:15;12.75;;;6.35;;
66169;SDS011;52971;44.024;20.456;2022-11-24T01:57:49;10.60;;;5.15;;
66169;SDS011;52971;44.024;20.456;2022-11-24T02:00:18;11.75;;;5.88;;
66169;SDS011;52971;44.024;20.456;2022-11-24T02:02:43;7.43;;;4.63;;
66169;SDS011;52971;44.024;20.456;2022-11-24T02:05:23;8.95;;;4.22;;
66169;SDS011;52971;44.024;20.456;2022-11-24T02:07:52;6.57;;;4.03;;
66169;SDS011;52971;44.024;20.456;2022-11-24T02:10:19;10.70;;;6.07;;
66169;SDS011;52971;44.024;20.456;2022-11-24T02:12:46;9.48;;;5.35;;
66169;SDS011;52971;44.024;20.456;2022-11-24T02:15:14;8.73;;;5.22;;
66169;SDS011;52971;44.024;20.456;2022-11-24T02:17:40;8.05;;;5.88;;
66169;SDS011;52971;44.024;20.456;2022-11-24T02:20:09;6.88;;;4.05;;
66169;SDS011;52971;44.024;20.456;2022-11-24T02:22:43;5.47;;;3.67;;
66169;SDS011;52971;44.024;20.456;2022-11-24T02:25:15;4.68;;;3.00;;
66169;SDS011;52971;44.024;20.456;2022-11-24T02:27:47;5.07;;;3.05;;
66169;SDS011;52971;44.024;20.456;2022-11-24T02:30:14;3.70;;;2.90;;
66169;SDS011;52971;44.024;20.456;2022-11-24T02:32:40;2.60;;;2.20;;
66169;SDS011;52971;44.024;20.456;2022-11-24T02:35:06;4.53;;;2.70;;
66169;SDS011;52971;44.024;20.456;2022-11-24T02:37:33;5.80;;;3.05;;
66169;SDS011;52971;44.024;20.456;2022-11-24T02:39:59;14.75;;;8.38;;
66169;SDS011;52971;44.024;20.456;2022-11-24T02:42:25;22.98;;;13.25;;
66169;SDS011;52971;44.024;20.456;2022-11-24T02:44:54;9.20;;;5.50;;
66169;SDS011;52971;44.024;20.456;2022-11-24T02:47:22;13.48;;;7.80;;
66169;SDS011;52971;44.024;20.456;2022-11-24T02:49:47;8.75;;;4.75;;
66169;SDS011;52971;44.024;20.456;2022-11-24T02:52:13;9.38;;;5.72;;
66169;SDS011;52971;44.024;20.456;2022-11-24T02:54:38;14.15;;;8.63;;
66169;SDS011;52971;44.024;20.456;2022-11-24T02:57:04;13.02;;;7.68;;
66169;SDS011;52971;44.024;20.456;2022-11-24T02:59:29;13.65;;;8.40;;
66169;SDS011;52971;44.024;20.456;2022-11-24T03:01:55;17.13;;;9.65;;
66169;SDS011;52971;44.024;20.456;2022-11-24T03:04:20;19.67;;;10.40;;
66169;SDS011;52971;44.024;20.456;2022-11-24T03:06:46;20.08;;;9.50;;
66169;SDS011;52971;44.024;20.456;2022-11-24T03:09:11;17.08;;;9.45;;
66169;SDS011;52971;44.024;20.456;2022-11-24T03:11:37;17.95;;;9.20;;
66169;SDS011;52971;44.024;20.456;2022-11-24T03:14:03;21.48;;;10.70;;
66169;SDS011;52971;44.024;20.456;2022-11-24T03:16:28;15.00;;;8.35;;
66169;SDS011;52971;44.024;20.456;2022-11-24T03:18:54;15.18;;;8.27;;
66169;SDS011;52971;44.024;20.456;2022-11-24T03:21:19;13.48;;;7.57;;
66169;SDS011;52971;44.024;20.456;2022-11-24T03:23:45;7.38;;;5.38;;
66169;SDS011;52971;44.024;20.456;2022-11-24T03:26:12;7.45;;;4.97;;
66169;SDS011;52971;44.024;20.456;2022-11-24T03:28:39;6.68;;;4.43;;
66169;SDS011;52971;44.024;20.456;2022-11-24T03:31:05;13.27;;;7.22;;
66169;SDS011;52971;44.024;20.456;2022-11-24T03:33:32;16.17;;;8.60;;
66169;SDS011;52971;44.024;20.456;2022-11-24T03:35:57;11.30;;;5.82;;
66169;SDS011;52971;44.024;20.456;2022-11-24T03:38:23;8.98;;;5.13;;
66169;SDS011;52971;44.024;20.456;2022-11-24T03:40:48;9.63;;;5.47;;
66169;SDS011;52971;44.024;20.456;2022-11-24T03:43:14;7.28;;;4.35;;
66169;SDS011;52971;44.024;20.456;2022-11-24T03:45:39;9.82;;;4.88;;
66169;SDS011;52971;44.024;20.456;2022-11-24T03:48:08;8.30;;;5.03;;
66169;SDS011;52971;44.024;20.456;2022-11-24T03:50:33;14.50;;;7.13;;
66169;SDS011;52971;44.024;20.456;2022-11-24T03:52:59;16.17;;;9.35;;
66169;SDS011;52971;44.024;20.456;2022-11-24T03:55:24;13.57;;;7.40;;
66169;SDS011;52971;44.024;20.456;2022-11-24T03:57:51;15.50;;;8.57;;
66169;SDS011;52971;44.024;20.456;2022-11-24T04:00:16;9.10;;;5.25;;
66169;SDS011;52971;44.024;20.456;2022-11-24T04:02:42;8.70;;;5.88;;
66169;SDS011;52971;44.024;20.456;2022-11-24T04:05:07;8.57;;;6.22;;
66169;SDS011;52971;44.024;20.456;2022-11-24T04:07:33;9.93;;;6.03;;
66169;SDS011;52971;44.024;20.456;2022-11-24T04:09:59;30.00;;;13.82;;
66169;SDS011;52971;44.024;20.456;2022-11-24T04:12:24;12.70;;;6.85;;
66169;SDS011;52971;44.024;20.456;2022-11-24T04:15:08;8.68;;;6.05;;
66169;SDS011;52971;44.024;20.456;2022-11-24T04:17:34;10.05;;;6.20;;
66169;SDS011;52971;44.024;20.456;2022-11-24T04:20:00;9.82;;;6.13;;
66169;SDS011;52971;44.024;20.456;2022-11-24T04:22:29;8.65;;;6.00;;
66169;SDS011;52971;44.024;20.456;2022-11-24T04:24:54;8.80;;;5.18;;
66169;SDS011;52971;44.024;20.456;2022-11-24T04:27:20;11.25;;;6.05;;
66169;SDS011;52971;44.024;20.456;2022-11-24T04:29:45;12.05;;;7.50;;
66169;SDS011;52971;44.024;20.456;2022-11-24T04:32:11;13.90;;;7.07;;
66169;SDS011;52971;44.024;20.456;2022-11-24T04:34:36;11.80;;;6.97;;
66169;SDS011;52971;44.024;20.456;2022-11-24T04:37:02;9.40;;;5.80;;
66169;SDS011;52971;44.024;20.456;2022-11-24T04:39:27;10.30;;;6.65;;
66169;SDS011;52971;44.024;20.456;2022-11-24T04:41:53;13.20;;;7.30;;
66169;SDS011;52971;44.024;20.456;2022-11-24T04:44:19;11.63;;;7.47;;
66169;SDS011;52971;44.024;20.456;2022-11-24T04:46:44;10.70;;;5.90;;
66169;SDS011;52971;44.024;20.456;2022-11-24T04:49:11;12.18;;;6.65;;
66169;SDS011;52971;44.024;20.456;2022-11-24T04:51:37;10.13;;;6.07;;
66169;SDS011;52971;44.024;20.456;2022-11-24T04:54:03;7.93;;;6.05;;
66169;SDS011;52971;44.024;20.456;2022-11-24T04:56:30;10.20;;;6.28;;
66169;SDS011;52971;44.024;20.456;2022-11-24T04:58:55;11.73;;;6.43;;
66169;SDS011;52971;44.024;20.456;2022-11-24T05:01:21;9.15;;;5.95;;
66169;SDS011;52971;44.024;20.456;2022-11-24T05:03:46;8.73;;;5.00;;
66169;SDS011;52971;44.024;20.456;2022-11-24T05:06:11;8.65;;;6.65;;
66169;SDS011;52971;44.024;20.456;2022-11-24T05:08:37;13.80;;;8.98;;
66169;SDS011;52971;44.024;20.456;2022-11-24T05:11:03;22.15;;;13.20;;
66169;SDS011;52971;44.024;20.456;2022-11-24T05:13:29;19.38;;;12.77;;
66169;SDS011;52971;44.024;20.456;2022-11-24T05:15:55;17.73;;;11.32;;
66169;SDS011;52971;44.024;20.456;2022-11-24T05:18:20;17.80;;;10.63;;
66169;SDS011;52971;44.024;20.456;2022-11-24T05:20:46;15.70;;;9.00;;
66169;SDS011;52971;44.024;20.456;2022-11-24T05:23:13;10.68;;;7.40;;
66169;SDS011;52971;44.024;20.456;2022-11-24T05:25:39;9.95;;;7.28;;
66169;SDS011;52971;44.024;20.456;2022-11-24T05:28:06;9.57;;;7.18;;
66169;SDS011;52971;44.024;20.456;2022-11-24T05:30:36;10.07;;;7.53;;
66169;SDS011;52971;44.024;20.456;2022-11-24T05:33:03;7.40;;;5.65;;
66169;SDS011;52971;44.024;20.456;2022-11-24T05:35:34;11.40;;;7.30;;
66169;SDS011;52971;44.024;20.456;2022-11-24T05:38:00;13.60;;;8.43;;
66169;SDS011;52971;44.024;20.456;2022-11-24T05:40:26;17.98;;;9.95;;
66169;SDS011;52971;44.024;20.456;2022-11-24T05:42:51;22.17;;;11.57;;
66169;SDS011;52971;44.024;20.456;2022-11-24T05:45:18;19.60;;;11.63;;
66169;SDS011;52971;44.024;20.456;2022-11-24T05:47:45;20.48;;;11.02;;
66169;SDS011;52971;44.024;20.456;2022-11-24T05:50:12;9.63;;;5.65;;
66169;SDS011;52971;44.024;20.456;2022-11-24T05:52:39;10.65;;;4.97;;
66169;SDS011;52971;44.024;20.456;2022-11-24T05:55:05;16.35;;;8.45;;
66169;SDS011;52971;44.024;20.456;2022-11-24T05:57:32;17.45;;;8.60;;
66169;SDS011;52971;44.024;20.456;2022-11-24T05:59:57;12.80;;;8.68;;
66169;SDS011;52971;44.024;20.456;2022-11-24T06:02:23;11.70;;;6.53;;
66169;SDS011;52971;44.024;20.456;2022-11-24T06:04:48;9.63;;;6.43;;
66169;SDS011;52971;44.024;20.456;2022-11-24T06:07:14;26.42;;;14.95;;
66169;SDS011;52971;44.024;20.456;2022-11-24T06:09:40;9.75;;;6.75;;
66169;SDS011;52971;44.024;20.456;2022-11-24T06:12:07;11.68;;;7.10;;
66169;SDS011;52971;44.024;20.456;2022-11-24T06:14:36;14.18;;;9.65;;
66169;SDS011;52971;44.024;20.456;2022-11-24T06:17:02;14.98;;;9.85;;
66169;SDS011;52971;44.024;20.456;2022-11-24T06:19:28;13.20;;;8.43;;
66169;SDS011;52971;44.024;20.456;2022-11-24T06:21:54;16.17;;;9.45;;
66169;SDS011;52971;44.024;20.456;2022-11-24T06:24:19;15.07;;;9.93;;
66169;SDS011;52971;44.024;20.456;2022-11-24T06:26:45;13.20;;;8.40;;
66169;SDS011;52971;44.024;20.456;2022-11-24T06:29:11;17.60;;;11.13;;
66169;SDS011;52971;44.024;20.456;2022-11-24T06:31:36;30.40;;;18.33;;
66169;SDS011;52971;44.024;20.456;2022-11-24T06:34:04;26.00;;;15.93;;
66169;SDS011;52971;44.024;20.456;2022-11-24T06:36:35;25.67;;;16.95;;
66169;SDS011;52971;44.024;20.456;2022-11-24T06:39:01;23.05;;;14.93;;
66169;SDS011;52971;44.024;20.456;2022-11-24T06:41:28;16.45;;;10.20;;
66169;SDS011;52971;44.024;20.456;2022-11-24T06:43:53;8.63;;;5.88;;
66169;SDS011;52971;44.024;20.456;2022-11-24T06:46:19;10.95;;;6.78;;
66169;SDS011;52971;44.024;20.456;2022-11-24T06:48:45;9.77;;;6.45;;
66169;SDS011;52971;44.024;20.456;2022-11-24T06:51:11;13.85;;;8.15;;
66169;SDS011;52971;44.024;20.456;2022-11-24T06:53:37;7.50;;;4.65;;
66169;SDS011;52971;44.024;20.456;2022-11-24T06:56:05;13.30;;;8.95;;
66169;SDS011;52971;44.024;20.456;2022-11-24T06:58:32;18.67;;;13.20;;
66169;SDS011;52971;44.024;20.456;2022-11-24T07:00:58;20.02;;;11.85;;
66169;SDS011;52971;44.024;20.456;2022-11-24T07:03:23;16.33;;;10.00;;
66169;SDS011;52971;44.024;20.456;2022-11-24T07:05:53;15.25;;;10.07;;
66169;SDS011;52971;44.024;20.456;2022-11-24T07:08:20;9.60;;;6.90;;
66169;SDS011;52971;44.024;20.456;2022-11-24T07:10:46;12.18;;;8.70;;
66169;SDS011;52971;44.024;20.456;2022-11-24T07:13:11;10.13;;;6.88;;
66169;SDS011;52971;44.024;20.456;2022-11-24T07:15:36;7.97;;;5.88;;
66169;SDS011;52971;44.024;20.456;2022-11-24T07:18:02;5.80;;;4.40;;
66169;SDS011;52971;44.024;20.456;2022-11-24T07:20:27;8.40;;;5.20;;
66169;SDS011;52971;44.024;20.456;2022-11-24T07:22:53;9.23;;;6.30;;
66169;SDS011;52971;44.024;20.456;2022-11-24T07:25:20;7.43;;;5.00;;
66169;SDS011;52971;44.024;20.456;2022-11-24T07:27:46;9.30;;;7.13;;
66169;SDS011;52971;44.024;20.456;2022-11-24T07:30:11;11.45;;;8.27;;
66169;SDS011;52971;44.024;20.456;2022-11-24T07:32:37;13.75;;;8.02;;
66169;SDS011;52971;44.024;20.456;2022-11-24T07:35:02;13.07;;;8.35;;
66169;SDS011;52971;44.024;20.456;2022-11-24T07:37:28;13.85;;;9.32;;
66169;SDS011;52971;44.024;20.456;2022-11-24T07:39:54;16.65;;;9.27;;
66169;SDS011;52971;44.024;20.456;2022-11-24T07:42:19;16.42;;;10.48;;
66169;SDS011;52971;44.024;20.456;2022-11-24T07:44:44;17.52;;;10.48;;
66169;SDS011;52971;44.024;20.456;2022-11-24T07:47:10;13.48;;;8.55;;
66169;SDS011;52971;44.024;20.456;2022-11-24T07:49:35;13.57;;;9.57;;
66169;SDS011;52971;44.024;20.456;2022-11-24T07:52:01;13.75;;;9.90;;
66169;SDS011;52971;44.024;20.456;2022-11-24T07:54:26;16.85;;;11.55;;
66169;SDS011;52971;44.024;20.456;2022-11-24T07:56:51;10.90;;;6.43;;
66169;SDS011;52971;44.024;20.456;2022-11-24T07:59:17;8.20;;;5.00;;
66169;SDS011;52971;44.024;20.456;2022-11-24T08:01:42;7.15;;;5.18;;
66169;SDS011;52971;44.024;20.456;2022-11-24T08:04:08;10.38;;;7.25;;
66169;SDS011;52971;44.024;20.456;2022-11-24T08:06:33;9.25;;;6.70;;
66169;SDS011;52971;44.024;20.456;2022-11-24T08:08:59;9.85;;;6.45;;
66169;SDS011;52971;44.024;20.456;2022-11-24T08:11:24;9.05;;;7.03;;
66169;SDS011;52971;44.024;20.456;2022-11-24T08:13:50;17.80;;;8.20;;
66169;SDS011;52971;44.024;20.456;2022-11-24T08:16:16;13.95;;;8.30;;
66169;SDS011;52971;44.024;20.456;2022-11-24T08:18:43;12.70;;;8.93;;
66169;SDS011;52971;44.024;20.456;2022-11-24T08:21:13;16.55;;;11.02;;
66169;SDS011;52971;44.024;20.456;2022-11-24T08:23:39;11.57;;;7.60;;
66169;SDS011;52971;44.024;20.456;2022-11-24T08:26:05;20.05;;;12.57;;
66169;SDS011;52971;44.024;20.456;2022-11-24T08:28:35;9.32;;;5.88;;
66169;SDS011;52971;44.024;20.456;2022-11-24T08:31:01;7.93;;;6.30;;
66169;SDS011;52971;44.024;20.456;2022-11-24T08:33:37;11.10;;;8.10;;
66169;SDS011;52971;44.024;20.456;2022-11-24T08:38:32;14.18;;;8.65;;
66169;SDS011;52971;44.024;20.456;2022-11-24T08:41:02;10.00;;;6.85;;
66169;SDS011;52971;44.024;20.456;2022-11-24T08:43:29;9.00;;;5.60;;
66169;SDS011;52971;44.024;20.456;2022-11-24T08:45:57;10.35;;;7.40;;
66169;SDS011;52971;44.024;20.456;2022-11-24T08:48:24;14.68;;;10.27;;
66169;SDS011;52971;44.024;20.456;2022-11-24T08:50:50;9.68;;;6.80;;
66169;SDS011;52971;44.024;20.456;2022-11-24T08:53:15;11.77;;;6.80;;
66169;SDS011;52971;44.024;20.456;2022-11-24T08:55:41;13.10;;;8.60;;
66169;SDS011;52971;44.024;20.456;2022-11-24T08:58:06;11.52;;;7.63;;
66169;SDS011;52971;44.024;20.456;2022-11-24T09:00:32;13.43;;;8.95;;
66169;SDS011;52971;44.024;20.456;2022-11-24T09:02:57;14.30;;;8.77;;
66169;SDS011;52971;44.024;20.456;2022-11-24T09:05:23;11.27;;;7.45;;
66169;SDS011;52971;44.024;20.456;2022-11-24T09:07:49;14.40;;;9.10;;
66169;SDS011;52971;44.024;20.456;2022-11-24T09:10:15;15.75;;;10.10;;
66169;SDS011;52971;44.024;20.456;2022-11-24T09:12:42;14.13;;;8.50;;
66169;SDS011;52971;44.024;20.456;2022-11-24T09:15:08;16.38;;;10.90;;
66169;SDS011;52971;44.024;20.456;2022-11-24T09:17:35;14.38;;;8.02;;
66169;SDS011;52971;44.024;20.456;2022-11-24T09:20:01;13.35;;;8.77;;
66169;SDS011;52971;44.024;20.456;2022-11-24T09:22:26;8.05;;;5.63;;
66169;SDS011;52971;44.024;20.456;2022-11-24T09:24:52;10.52;;;6.93;;
66169;SDS011;52971;44.024;20.456;2022-11-24T09:27:17;9.23;;;5.72;;
66169;SDS011;52971;44.024;20.456;2022-11-24T09:29:43;10.00;;;6.88;;
66169;SDS011;52971;44.024;20.456;2022-11-24T09:32:08;25.35;;;16.55;;
66169;SDS011;52971;44.024;20.456;2022-11-24T09:34:34;25.05;;;16.67;;
66169;SDS011;52971;44.024;20.456;2022-11-24T09:37:00;41.38;;;24.63;;
66169;SDS011;52971;44.024;20.456;2022-11-24T09:39:25;38.92;;;23.40;;
66169;SDS011;52971;44.024;20.456;2022-11-24T09:42:01;40.17;;;24.90;;
66169;SDS011;52971;44.024;20.456;2022-11-24T09:52:54;18.35;;;12.73;;
66169;SDS011;52971;44.024;20.456;2022-11-24T09:55:38;10.05;;;7.00;;
66169;SDS011;52971;44.024;20.456;2022-11-24T09:58:08;8.20;;;6.25;;
66169;SDS011;52971;44.024;20.456;2022-11-24T10:00:37;12.07;;;9.05;;
66169;SDS011;52971;44.024;20.456;2022-11-24T10:03:04;18.90;;;11.75;;
66169;SDS011;52971;44.024;20.456;2022-11-24T10:05:32;12.43;;;8.07;;
66169;SDS011;52971;44.024;20.456;2022-11-24T10:10:57;24.40;;;12.75;;
66169;SDS011;52971;44.024;20.456;2022-11-24T10:16:21;48.47;;;27.83;;
66169;SDS011;52971;44.024;20.456;2022-11-24T10:27:00;22.90;;;15.43;;
66169;SDS011;52971;44.024;20.456;2022-11-24T10:29:50;29.08;;;17.75;;
66169;SDS011;52971;44.024;20.456;2022-11-24T10:32:18;23.83;;;15.25;;
66169;SDS011;52971;44.024;20.456;2022-11-24T10:34:48;15.85;;;10.80;;
66169;SDS011;52971;44.024;20.456;2022-11-24T10:39:43;11.80;;;8.02;;
66169;SDS011;52971;44.024;20.456;2022-11-24T10:42:24;18.38;;;11.68;;
66169;SDS011;52971;44.024;20.456;2022-11-24T10:45:02;17.75;;;10.27;;
66169;SDS011;52971;44.024;20.456;2022-11-24T10:47:35;14.10;;;9.23;;
66169;SDS011;52971;44.024;20.456;2022-11-24T10:52:39;12.20;;;7.70;;
66169;SDS011;52971;44.024;20.456;2022-11-24T10:55:07;11.95;;;7.78;;
66169;SDS011;52971;44.024;20.456;2022-11-24T10:57:37;15.75;;;10.52;;
66169;SDS011;52971;44.024;20.456;2022-11-24T11:00:27;16.23;;;9.60;;
66169;SDS011;52971;44.024;20.456;2022-11-24T11:02:50;15.20;;;9.02;;
66169;SDS011;52971;44.024;20.456;2022-11-24T11:05:40;10.48;;;6.68;;
66169;SDS011;52971;44.024;20.456;2022-11-24T11:08:19;4.65;;;3.30;;
66169;SDS011;52971;44.024;20.456;2022-11-24T11:16:42;6.75;;;4.68;;
66169;SDS011;52971;44.024;20.456;2022-11-24T11:24:59;12.38;;;8.00;;
66169;SDS011;52971;44.024;20.456;2022-11-24T11:27:46;7.32;;;4.80;;
66169;SDS011;52971;44.024;20.456;2022-11-24T11:32:51;10.02;;;6.15;;
66169;SDS011;52971;44.024;20.456;2022-11-24T11:35:17;8.35;;;6.03;;
66169;SDS011;52971;44.024;20.456;2022-11-24T11:37:42;10.15;;;5.70;;
66169;SDS011;52971;44.024;20.456;2022-11-24T11:40:14;10.07;;;5.63;;
66169;SDS011;52971;44.024;20.456;2022-11-24T11:42:49;6.57;;;4.65;;
66169;SDS011;52971;44.024;20.456;2022-11-24T11:48:05;4.90;;;3.35;;
66169;SDS011;52971;44.024;20.456;2022-11-24T11:50:44;8.48;;;4.38;;
66169;SDS011;52971;44.024;20.456;2022-11-24T11:53:21;8.68;;;5.53;;
66169;SDS011;52971;44.024;20.456;2022-11-24T12:20:39;18.63;;;7.03;;
66169;SDS011;52971;44.024;20.456;2022-11-24T12:23:30;8.93;;;4.80;;
66169;SDS011;52971;44.024;20.456;2022-11-24T12:26:12;12.50;;;6.68;;
66169;SDS011;52971;44.024;20.456;2022-11-24T12:29:07;16.58;;;10.55;;
66169;SDS011;52971;44.024;20.456;2022-11-24T12:31:45;13.10;;;8.25;;
66169;SDS011;52971;44.024;20.456;2022-11-24T12:43:13;11.48;;;5.72;;
66169;SDS011;52971;44.024;20.456;2022-11-24T12:51:50;2.80;;;1.25;;
66169;SDS011;52971;44.024;20.456;2022-11-24T12:54:31;10.02;;;5.45;;
66169;SDS011;52971;44.024;20.456;2022-11-24T13:05:36;5.43;;;3.35;;
66169;SDS011;52971;44.024;20.456;2022-11-24T13:08:10;19.67;;;12.57;;
66169;SDS011;52971;44.024;20.456;2022-11-24T13:10:38;36.05;;;17.23;;
66169;SDS011;52971;44.024;20.456;2022-11-24T13:13:10;46.45;;;30.42;;
66169;SDS011;52971;44.024;20.456;2022-11-24T13:24:02;54.75;;;27.33;;
66169;SDS011;52971;44.024;20.456;2022-11-24T13:26:52;27.63;;;15.60;;
66169;SDS011;52971;44.024;20.456;2022-11-24T13:35:11;22.33;;;10.52;;
66169;SDS011;52971;44.024;20.456;2022-11-24T13:42:12;19.70;;;8.93;;
66169;SDS011;52971;44.024;20.456;2022-11-24T13:44:41;10.68;;;5.15;;
66169;SDS011;52971;44.024;20.456;2022-11-24T14:00:31;42.78;;;15.52;;
66169;SDS011;52971;44.024;20.456;2022-11-24T14:03:02;35.97;;;17.63;;
66169;SDS011;52971;44.024;20.456;2022-11-24T14:05:39;19.27;;;13.32;;
66169;SDS011;52971;44.024;20.456;2022-11-24T14:08:17;34.75;;;16.45;;
66169;SDS011;52971;44.024;20.456;2022-11-24T14:10:47;36.88;;;19.05;;
66169;SDS011;52971;44.024;20.456;2022-11-24T14:15:59;26.67;;;12.25;;
66169;SDS011;52971;44.024;20.456;2022-11-24T14:18:29;24.40;;;9.68;;
66169;SDS011;52971;44.024;20.456;2022-11-24T14:20:56;22.98;;;11.30;;
66169;SDS011;52971;44.024;20.456;2022-11-24T14:23:24;22.23;;;12.02;;
66169;SDS011;52971;44.024;20.456;2022-11-24T14:25:50;29.20;;;15.57;;
66169;SDS011;52971;44.024;20.456;2022-11-24T14:31:08;73.97;;;31.70;;
66169;SDS011;52971;44.024;20.456;2022-11-24T14:36:53;32.15;;;17.67;;
66169;SDS011;52971;44.024;20.456;2022-11-24T14:39:20;27.33;;;17.00;;
66169;SDS011;52971;44.024;20.456;2022-11-24T14:41:51;28.85;;;16.17;;
66169;SDS011;52971;44.024;20.456;2022-11-24T14:44:28;29.98;;;18.33;;
66169;SDS011;52971;44.024;20.456;2022-11-24T14:47:20;40.03;;;20.38;;
66169;SDS011;52971;44.024;20.456;2022-11-24T14:49:55;33.10;;;20.48;;
66169;SDS011;52971;44.024;20.456;2022-11-24T14:52:22;37.80;;;22.40;;
66169;SDS011;52971;44.024;20.456;2022-11-24T14:54:52;62.20;;;31.23;;
66169;SDS011;52971;44.024;20.456;2022-11-24T14:57:35;46.17;;;25.63;;
66169;SDS011;52971;44.024;20.456;2022-11-24T15:02:37;51.90;;;30.90;;
66169;SDS011;52971;44.024;20.456;2022-11-24T15:05:15;46.97;;;28.02;;
66169;SDS011;52971;44.024;20.456;2022-11-24T15:07:42;41.92;;;24.83;;
66169;SDS011;52971;44.024;20.456;2022-11-24T15:10:26;44.42;;;26.40;;
66169;SDS011;52971;44.024;20.456;2022-11-24T15:12:57;52.00;;;29.30;;
66169;SDS011;52971;44.024;20.456;2022-11-24T15:15:36;50.35;;;28.33;;
66169;SDS011;52971;44.024;20.456;2022-11-24T15:18:03;41.92;;;24.17;;
66169;SDS011;52971;44.024;20.456;2022-11-24T15:20:31;44.72;;;29.60;;
66169;SDS011;52971;44.024;20.456;2022-11-24T15:28:26;60.42;;;36.28;;
66169;SDS011;52971;44.024;20.456;2022-11-24T15:31:09;59.55;;;35.65;;
66169;SDS011;52971;44.024;20.456;2022-11-24T15:33:37;63.30;;;37.65;;
66169;SDS011;52971;44.024;20.456;2022-11-24T15:36:03;72.38;;;42.38;;
66169;SDS011;52971;44.024;20.456;2022-11-24T15:38:29;74.55;;;42.75;;
66169;SDS011;52971;44.024;20.456;2022-11-24T15:40:56;91.35;;;53.13;;
66169;SDS011;52971;44.024;20.456;2022-11-24T15:43:36;82.60;;;48.40;;
66169;SDS011;52971;44.024;20.456;2022-11-24T15:46:04;75.15;;;41.55;;
66169;SDS011;52971;44.024;20.456;2022-11-24T15:48:30;72.38;;;43.50;;
66169;SDS011;52971;44.024;20.456;2022-11-24T15:50:56;66.80;;;40.65;;
66169;SDS011;52971;44.024;20.456;2022-11-24T15:55:59;51.42;;;30.73;;
66169;SDS011;52971;44.024;20.456;2022-11-24T15:58:26;53.50;;;31.75;;
66169;SDS011;52971;44.024;20.456;2022-11-24T16:00:52;74.72;;;40.58;;
66169;SDS011;52971;44.024;20.456;2022-11-24T16:03:17;71.55;;;42.38;;
66169;SDS011;52971;44.024;20.456;2022-11-24T16:05:43;59.22;;;36.28;;
66169;SDS011;52971;44.024;20.456;2022-11-24T16:08:13;47.90;;;29.25;;
66169;SDS011;52971;44.024;20.456;2022-11-24T16:10:40;50.20;;;27.50;;
66169;SDS011;52971;44.024;20.456;2022-11-24T16:13:07;88.95;;;45.05;;
66169;SDS011;52971;44.024;20.456;2022-11-24T16:15:32;63.10;;;35.55;;
66169;SDS011;52971;44.024;20.456;2022-11-24T16:17:58;52.65;;;31.25;;
66169;SDS011;52971;44.024;20.456;2022-11-24T16:20:23;54.13;;;34.53;;
66169;SDS011;52971;44.024;20.456;2022-11-24T16:22:49;82.88;;;47.88;;
66169;SDS011;52971;44.024;20.456;2022-11-24T16:25:14;96.70;;;61.05;;
66169;SDS011;52971;44.024;20.456;2022-11-24T16:27:40;108.25;;;65.97;;
66169;SDS011;52971;44.024;20.456;2022-11-24T16:30:06;116.72;;;72.93;;
66169;SDS011;52971;44.024;20.456;2022-11-24T16:32:32;112.85;;;70.82;;
66169;SDS011;52971;44.024;20.456;2022-11-24T16:34:58;114.00;;;71.13;;
66169;SDS011;52971;44.024;20.456;2022-11-24T16:37:24;110.97;;;65.90;;
66169;SDS011;52971;44.024;20.456;2022-11-24T16:39:50;132.98;;;80.97;;
66169;SDS011;52971;44.024;20.456;2022-11-24T16:42:15;122.05;;;75.20;;
66169;SDS011;52971;44.024;20.456;2022-11-24T16:44:41;145.25;;;85.63;;
66169;SDS011;52971;44.024;20.456;2022-11-24T16:47:07;137.15;;;82.65;;
66169;SDS011;52971;44.024;20.456;2022-11-24T16:49:33;144.57;;;86.10;;
66169;SDS011;52971;44.024;20.456;2022-11-24T16:51:58;125.03;;;71.43;;
66169;SDS011;52971;44.024;20.456;2022-11-24T16:54:24;112.93;;;65.00;;